Time;durP1;ratioP1;P1;durP2;ratioP2;P2;SDS_P1;SDS_P2;PMS_P1;PMS_P2;Temp;Humidity;BMP_temperature;BMP_pressure;BME280_temperature;BME280_humidity;BME280_pressure;Samples;Min_cycle;Max_cycle;Signal;HPM_P1;HPM_P2
2022/10/28 00:00:38;;;;;;;;;;;23.70;55.60;;;;;;1505346;77;1553;-61
2022/10/28 00:02:40;;;;;;;;;;;23.70;55.40;;;;;;1505188;77;775;-60
2022/10/28 00:04:42;;;;;;;;;;;23.70;55.40;;;;;;1501620;78;835;-60
2022/10/28 00:06:44;;;;;;;;;;;23.70;55.50;;;;;;1506938;78;1151;-58
2022/10/28 00:08:46;;;;;;;;;;;23.70;55.40;;;;;;1512751;78;706;-58
2022/10/28 00:10:48;;;;;;;;;;;23.70;55.40;;;;;;1506677;77;1947;-56
2022/10/28 00:12:49;;;;;;;;;;;23.60;55.50;;;;;;1505514;77;794;-61
2022/10/28 00:14:51;;;;;;;;;;;23.60;55.70;;;;;;1502396;78;1545;-55
2022/10/28 00:16:53;;;;;;;;;;;23.50;55.80;;;;;;1496766;78;1224;-61
2022/10/28 00:18:55;;;;;;;;;;;23.50;56.10;;;;;;1499201;78;731;-59
2022/10/28 00:21:01;;;;;;;;;;;23.40;56.20;;;;;;1500669;77;744;-57
2022/10/28 00:23:03;;;;;;;;;;;23.40;56.20;;;;;;1500055;78;813;-57
2022/10/28 00:25:05;;;;;;;;;;;23.30;56.30;;;;;;1516134;77;1105;-59
2022/10/28 00:27:07;;;;;;;;;;;23.40;56.40;;;;;;1508577;78;1195;-61
2022/10/28 00:29:13;;;;;;;;;;;23.30;56.50;;;;;;1509789;77;1524;-60
2022/10/28 00:31:16;;;;;;;;;;;23.30;56.50;;;;;;1503491;78;1947;-59
2022/10/28 00:33:17;;;;;;;;;;;23.30;56.50;;;;;;1522747;78;717;-57
2022/10/28 00:35:19;;;;;;;;;;;23.30;56.70;;;;;;1509881;77;803;-59
2022/10/28 00:37:21;;;;;;;;;;;23.30;56.80;;;;;;1515857;77;1099;-59
2022/10/28 00:39:23;;;;;;;;;;;23.40;56.70;;;;;;1519210;78;726;-59
2022/10/28 00:41:26;;;;;;;;;;;23.40;56.70;;;;;;1517811;78;753;-61
2022/10/28 00:43:39;;;;;;;;;;;23.40;56.50;;;;;;1494663;78;1534;-57
2022/10/28 00:45:40;;;;;;;;;;;23.50;56.30;;;;;;1523300;77;1797;-56
2022/10/28 00:47:54;;;;;;;;;;;23.50;56.30;;;;;;1467882;78;731;-60
2022/10/28 00:49:57;;;;;;;;;;;23.50;56.20;;;;;;1493353;79;714;-55
2022/10/28 00:52:03;;;;;;;;;;;23.50;56.10;;;;;;1561139;75;1943;-59
2022/10/28 00:54:05;;;;;;;;;;;23.50;56.00;;;;;;1558791;76;747;-57
2022/10/28 00:56:07;;;;;;;;;;;23.60;55.90;;;;;;1557687;76;1153;-59
2022/10/28 00:58:09;;;;;;;;;;;23.60;56.00;;;;;;1550989;76;1664;-60
2022/10/28 01:00:11;;;;;;;;;;;23.40;56.20;;;;;;1545244;76;753;-60
2022/10/28 01:02:13;;;;;;;;;;;23.40;56.60;;;;;;1547830;75;733;-59
2022/10/28 01:04:15;;;;;;;;;;;23.30;56.60;;;;;;1549630;76;728;-59
2022/10/28 01:06:17;;;;;;;;;;;23.40;56.60;;;;;;1549384;76;1089;-59
2022/10/28 01:08:19;;;;;;;;;;;23.30;56.90;;;;;;1543233;76;779;-60
2022/10/28 01:10:21;;;;;;;;;;;23.20;57.20;;;;;;1556468;75;740;-60
2022/10/28 01:12:24;;;;;;;;;;;23.20;57.10;;;;;;1554464;75;1948;-58
2022/10/28 01:14:34;;;;;;;;;;;23.20;57.40;;;;;;1545244;76;1988;-60
2022/10/28 01:16:43;;;;;;;;;;;23.10;57.60;;;;;;1551115;76;1883;-60
2022/10/28 01:18:47;;;;;;;;;;;23.10;57.70;;;;;;1527405;76;1663;-56
2022/10/28 01:20:56;;;;;;;;;;;23.00;57.80;;;;;;1555579;76;1723;-58
2022/10/28 01:23:16;;;;;;;;;;;23.00;58.00;;;;;;1553219;75;757;-57
2022/10/28 01:25:20;;;;;;;;;;;23.00;58.20;;;;;;1541972;74;1471;-59
2022/10/28 01:27:29;;;;;;;;;;;23.00;58.00;;;;;;1557199;75;1381;-59
2022/10/28 01:29:32;;;;;;;;;;;23.00;58.10;;;;;;1546716;74;784;-60
2022/10/28 01:31:49;;;;;;;;;;;23.10;57.80;;;;;;1544584;75;1951;-59
2022/10/28 01:33:56;;;;;;;;;;;23.20;57.60;;;;;;1543293;75;663;-60
2022/10/28 01:35:59;;;;;;;;;;;23.20;57.30;;;;;;1532376;75;1689;-58
2022/10/28 01:38:19;;;;;;;;;;;23.30;57.30;;;;;;1557924;74;1834;-60
2022/10/28 01:40:34;;;;;;;;;;;23.20;57.20;;;;;;1555868;75;1718;-60
2022/10/28 01:42:47;;;;;;;;;;;23.30;57.20;;;;;;1554158;74;761;-59
2022/10/28 01:44:53;;;;;;;;;;;23.30;57.00;;;;;;1563520;75;1839;-60
2022/10/28 01:47:13;;;;;;;;;;;23.30;57.10;;;;;;1487552;75;1068;-60
2022/10/28 01:49:25;;;;;;;;;;;23.20;57.20;;;;;;1553985;75;697;-60
2022/10/28 01:51:29;;;;;;;;;;;23.20;57.20;;;;;;1556805;74;1945;-61
2022/10/28 01:53:31;;;;;;;;;;;23.20;57.30;;;;;;1556795;75;1492;-59
2022/10/28 01:55:34;;;;;;;;;;;23.10;57.30;;;;;;1556296;75;1153;-60
2022/10/28 01:57:36;;;;;;;;;;;23.10;57.30;;;;;;1568400;75;703;-60
2022/10/28 01:59:38;;;;;;;;;;;23.20;57.30;;;;;;1566814;74;815;-60
2022/10/28 02:01:40;;;;;;;;;;;23.20;57.40;;;;;;1554872;75;773;-60
2022/10/28 02:03:42;;;;;;;;;;;23.10;57.60;;;;;;1548396;75;700;-59
2022/10/28 02:05:45;;;;;;;;;;;23.10;57.80;;;;;;1553894;75;1169;-59
2022/10/28 02:07:46;;;;;;;;;;;23.00;57.90;;;;;;1561693;74;1457;-59
2022/10/28 02:09:56;;;;;;;;;;;23.10;57.90;;;;;;1558263;75;749;-60
2022/10/28 02:12:16;;;;;;;;;;;22.90;58.00;;;;;;1566082;74;1946;-60
2022/10/28 02:14:32;;;;;;;;;;;23.00;58.30;;;;;;1567176;75;780;-60
2022/10/28 02:16:35;;;;;;;;;;;22.90;58.40;;;;;;1563133;75;1134;-60
2022/10/28 02:18:55;;;;;;;;;;;22.90;58.40;;;;;;1564511;75;717;-59
2022/10/28 02:20:59;;;;;;;;;;;22.90;58.60;;;;;;1557620;74;1460;-59
2022/10/28 02:23:02;;;;;;;;;;;22.90;58.50;;;;;;1558973;74;799;-59
2022/10/28 02:25:06;;;;;;;;;;;23.00;58.60;;;;;;1561431;75;1127;-59
2022/10/28 02:27:12;;;;;;;;;;;22.80;58.70;;;;;;1558540;75;1232;-59
2022/10/28 02:29:18;;;;;;;;;;;22.90;59.10;;;;;;1557207;74;742;-59
2022/10/28 02:31:22;;;;;;;;;;;22.90;59.20;;;;;;1553804;75;1945;-59
2022/10/28 02:33:25;;;;;;;;;;;22.90;59.20;;;;;;1560513;76;762;-59
2022/10/28 02:35:28;;;;;;;;;;;22.90;59.30;;;;;;1561032;76;1264;-59
2022/10/28 02:37:31;;;;;;;;;;;22.80;59.10;;;;;;1550805;75;1848;-59
2022/10/28 02:39:34;;;;;;;;;;;22.80;59.10;;;;;;1554276;75;701;-58
2022/10/28 02:41:41;;;;;;;;;;;23.00;58.30;;;;;;1560814;75;708;-58
2022/10/28 02:43:42;;;;;;;;;;;23.20;57.70;;;;;;1555426;75;1839;-59
2022/10/28 02:45:46;;;;;;;;;;;23.30;57.30;;;;;;1559457;76;1153;-59
2022/10/28 02:47:49;;;;;;;;;;;23.40;57.10;;;;;;1558069;76;775;-60
2022/10/28 02:49:53;;;;;;;;;;;23.30;56.80;;;;;;1562952;74;1707;-58
2022/10/28 02:51:56;;;;;;;;;;;23.40;56.70;;;;;;1558728;75;1921;-59
2022/10/28 02:54:06;;;;;;;;;;;23.30;56.70;;;;;;1558487;76;783;-58
2022/10/28 02:56:07;;;;;;;;;;;23.30;56.70;;;;;;1561080;75;1152;-59
2022/10/28 02:58:09;;;;;;;;;;;23.30;56.80;;;;;;1560154;76;688;-58
2022/10/28 03:00:13;;;;;;;;;;;23.30;56.70;;;;;;1558629;75;704;-59
2022/10/28 03:02:15;;;;;;;;;;;23.20;56.80;;;;;;1560546;75;888;-59
2022/10/28 03:04:17;;;;;;;;;;;23.20;56.80;;;;;;1520276;78;1343;-58
2022/10/28 03:06:19;;;;;;;;;;;23.20;56.90;;;;;;1485837;79;1066;-59
2022/10/28 03:08:23;;;;;;;;;;;23.20;57.10;;;;;;1485305;79;781;-58
2022/10/28 03:10:24;;;;;;;;;;;23.10;57.10;;;;;;1495827;78;1816;-60
2022/10/28 03:12:26;;;;;;;;;;;23.10;57.10;;;;;;1474111;79;1951;-59
2022/10/28 03:14:28;;;;;;;;;;;23.20;57.10;;;;;;1496581;78;747;-59
2022/10/28 03:16:30;;;;;;;;;;;23.10;57.30;;;;;;1489688;78;1158;-59
2022/10/28 03:18:31;;;;;;;;;;;23.20;57.30;;;;;;1529229;77;1583;-59
2022/10/28 03:20:33;;;;;;;;;;;23.20;57.40;;;;;;1490664;79;761;-59
2022/10/28 03:22:35;;;;;;;;;;;23.10;57.30;;;;;;1490272;78;770;-58
2022/10/28 03:24:37;;;;;;;;;;;23.20;57.30;;;;;;1486857;79;759;-58
2022/10/28 03:26:39;;;;;;;;;;;23.20;57.30;;;;;;1497695;79;1170;-59
2022/10/28 03:28:41;;;;;;;;;;;23.10;57.30;;;;;;1490003;78;746;-60
2022/10/28 03:30:43;;;;;;;;;;;23.10;57.30;;;;;;1503412;77;739;-60
2022/10/28 03:32:45;;;;;;;;;;;23.10;57.40;;;;;;1566615;75;1936;-60
2022/10/28 03:34:46;;;;;;;;;;;23.20;57.30;;;;;;1528856;77;767;-60
2022/10/28 03:36:48;;;;;;;;;;;23.20;57.30;;;;;;1499048;78;1199;-58
2022/10/28 03:38:50;;;;;;;;;;;23.20;57.40;;;;;;1528156;77;660;-57
2022/10/28 03:40:52;;;;;;;;;;;23.10;57.60;;;;;;1529409;77;719;-57
2022/10/28 03:42:54;;;;;;;;;;;23.00;57.50;;;;;;1528906;76;726;-60
2022/10/28 03:44:56;;;;;;;;;;;23.10;57.70;;;;;;1524595;77;738;-59
2022/10/28 03:46:58;;;;;;;;;;;23.10;57.80;;;;;;1528060;77;1622;-58
2022/10/28 03:48:59;;;;;;;;;;;23.10;57.80;;;;;;1503206;79;735;-58
2022/10/28 03:51:01;;;;;;;;;;;23.10;57.80;;;;;;1525368;77;795;-59
2022/10/28 03:53:03;;;;;;;;;;;23.00;57.70;;;;;;1523060;76;1948;-58
2022/10/28 03:55:05;;;;;;;;;;;23.10;57.70;;;;;;1559921;75;745;-57
2022/10/28 03:57:07;;;;;;;;;;;23.00;57.60;;;;;;1565159;75;1131;-60
2022/10/28 03:59:09;;;;;;;;;;;23.10;57.80;;;;;;1563592;75;806;-60
2022/10/28 04:01:11;;;;;;;;;;;23.10;57.90;;;;;;1560863;75;1544;-60
2022/10/28 04:03:13;;;;;;;;;;;23.10;57.90;;;;;;1563942;75;790;-60
2022/10/28 04:05:15;;;;;;;;;;;23.00;57.80;;;;;;1564563;75;837;-59
2022/10/28 04:07:16;;;;;;;;;;;23.10;57.80;;;;;;1560080;75;1149;-59
2022/10/28 04:09:18;;;;;;;;;;;23.00;57.80;;;;;;1560402;75;718;-58
2022/10/28 04:11:20;;;;;;;;;;;23.00;57.80;;;;;;1560811;75;739;-60
2022/10/28 04:13:22;;;;;;;;;;;23.00;57.80;;;;;;1561997;75;1932;-60
2022/10/28 04:15:24;;;;;;;;;;;23.10;58.10;;;;;;1561095;75;1679;-59
2022/10/28 04:17:26;;;;;;;;;;;23.10;58.10;;;;;;1560896;75;1080;-58
2022/10/28 04:19:28;;;;;;;;;;;23.00;58.00;;;;;;1557619;76;725;-58
2022/10/28 04:21:30;;;;;;;;;;;23.00;58.10;;;;;;1563908;75;829;-57
2022/10/28 04:23:32;;;;;;;;;;;23.10;58.10;;;;;;1561480;76;787;-57
2022/10/28 04:25:33;;;;;;;;;;;23.10;58.30;;;;;;1561455;75;1276;-60
2022/10/28 04:27:35;;;;;;;;;;;23.00;58.10;;;;;;1547566;75;1517;-60
2022/10/28 04:29:37;;;;;;;;;;;23.00;58.10;;;;;;1554513;75;770;-58
2022/10/28 04:31:39;;;;;;;;;;;23.00;58.10;;;;;;1541366;75;1936;-59
2022/10/28 04:33:41;;;;;;;;;;;23.00;58.10;;;;;;1560167;75;789;-60
2022/10/28 04:35:43;;;;;;;;;;;23.00;58.00;;;;;;1548708;75;1208;-60
2022/10/28 04:37:45;;;;;;;;;;;23.00;58.10;;;;;;1557346;75;644;-58
2022/10/28 04:39:46;;;;;;;;;;;23.00;58.10;;;;;;1533010;75;836;-59
2022/10/28 04:41:48;;;;;;;;;;;23.10;58.20;;;;;;1555658;75;1306;-60
2022/10/28 04:43:50;;;;;;;;;;;23.00;58.10;;;;;;1541137;75;680;-60
2022/10/28 04:45:52;;;;;;;;;;;23.10;58.20;;;;;;1554570;75;1169;-59
2022/10/28 04:47:57;;;;;;;;;;;23.00;58.10;;;;;;1545192;75;767;-60
2022/10/28 04:49:59;;;;;;;;;;;23.10;58.10;;;;;;1564143;75;800;-60
2022/10/28 04:52:01;;;;;;;;;;;23.20;58.40;;;;;;1553829;75;1940;-60
2022/10/28 04:54:03;;;;;;;;;;;23.10;58.50;;;;;;1556364;75;708;-60
2022/10/28 04:56:05;;;;;;;;;;;23.00;58.50;;;;;;1560093;75;1623;-60
2022/10/28 04:58:07;;;;;;;;;;;23.10;58.40;;;;;;1548398;75;745;-56
2022/10/28 05:00:09;;;;;;;;;;;23.20;58.00;;;;;;1530364;75;741;-60
2022/10/28 05:02:11;;;;;;;;;;;23.20;58.30;;;;;;1557915;75;702;-60
2022/10/28 05:04:13;;;;;;;;;;;23.10;58.40;;;;;;1554589;75;737;-60
2022/10/28 05:06:15;;;;;;;;;;;23.20;58.40;;;;;;1559137;75;1097;-59
2022/10/28 05:08:17;;;;;;;;;;;23.20;58.50;;;;;;1557325;75;790;-57
2022/10/28 05:10:19;;;;;;;;;;;23.20;58.20;;;;;;1557266;75;1312;-59
2022/10/28 05:12:20;;;;;;;;;;;23.20;58.20;;;;;;1554538;75;1931;-61
2022/10/28 05:14:22;;;;;;;;;;;23.30;58.30;;;;;;1559943;75;926;-60
2022/10/28 05:16:24;;;;;;;;;;;23.20;58.00;;;;;;1551792;75;1144;-57
2022/10/28 05:18:26;;;;;;;;;;;23.10;58.10;;;;;;1558694;75;771;-59
2022/10/28 05:20:28;;;;;;;;;;;23.10;58.40;;;;;;1554482;75;682;-60
2022/10/28 05:22:30;;;;;;;;;;;23.10;58.70;;;;;;1555289;75;747;-57
2022/10/28 05:24:32;;;;;;;;;;;23.10;59.20;;;;;;1556384;75;1504;-61
2022/10/28 05:26:33;;;;;;;;;;;23.10;58.90;;;;;;1555960;75;1138;-59
2022/10/28 05:28:35;;;;;;;;;;;23.20;58.60;;;;;;1557569;75;706;-59
2022/10/28 05:30:37;;;;;;;;;;;23.20;58.50;;;;;;1517636;77;722;-60
2022/10/28 05:32:39;;;;;;;;;;;23.10;58.90;;;;;;1480790;79;1935;-58
2022/10/28 05:34:41;;;;;;;;;;;23.00;58.70;;;;;;1494884;79;829;-56
2022/10/28 05:36:43;;;;;;;;;;;23.10;59.20;;;;;;1492641;79;1229;-58
2022/10/28 05:38:45;;;;;;;;;;;23.10;59.40;;;;;;1499265;77;1516;-61
2022/10/28 05:40:47;;;;;;;;;;;23.00;59.40;;;;;;1491106;79;735;-60
2022/10/28 05:42:48;;;;;;;;;;;23.00;59.20;;;;;;1491486;78;750;-60
2022/10/28 05:44:50;;;;;;;;;;;23.10;58.80;;;;;;1522319;78;727;-59
2022/10/28 05:46:53;;;;;;;;;;;23.30;58.30;;;;;;1496404;77;1148;-59
2022/10/28 05:48:54;;;;;;;;;;;23.40;57.80;;;;;;1495279;79;823;-61
2022/10/28 05:50:56;;;;;;;;;;;23.50;57.60;;;;;;1493597;78;903;-60
2022/10/28 05:52:58;;;;;;;;;;;23.50;57.30;;;;;;1475559;79;1949;-61
2022/10/28 05:55:00;;;;;;;;;;;23.50;57.10;;;;;;1525527;78;874;-61
2022/10/28 05:57:02;;;;;;;;;;;23.60;56.90;;;;;;1522435;78;1151;-61
2022/10/28 05:59:04;;;;;;;;;;;23.60;56.80;;;;;;1522905;78;700;-60
2022/10/28 06:01:06;;;;;;;;;;;23.50;56.80;;;;;;1511336;77;689;-60
2022/10/28 06:03:10;;;;;;;;;;;23.50;56.90;;;;;;1518733;78;692;-60
2022/10/28 06:05:12;;;;;;;;;;;23.60;56.80;;;;;;1508238;78;706;-60
2022/10/28 06:07:14;;;;;;;;;;;23.50;56.80;;;;;;1491354;79;1600;-60
2022/10/28 06:09:16;;;;;;;;;;;23.50;56.60;;;;;;1505791;77;722;-61
2022/10/28 06:11:18;;;;;;;;;;;23.50;56.70;;;;;;1519039;78;690;-60
2022/10/28 06:13:20;;;;;;;;;;;23.60;56.70;;;;;;1508307;77;1953;-61
2022/10/28 06:15:22;;;;;;;;;;;23.50;56.70;;;;;;1519072;77;794;-60
2022/10/28 06:17:24;;;;;;;;;;;23.50;56.80;;;;;;1518717;78;1119;-60
2022/10/28 06:19:26;;;;;;;;;;;23.40;56.70;;;;;;1522524;77;700;-60
2022/10/28 06:21:28;;;;;;;;;;;23.40;56.70;;;;;;1515613;78;1285;-59
2022/10/28 06:23:29;;;;;;;;;;;23.40;56.70;;;;;;1522479;78;673;-61
2022/10/28 06:25:31;;;;;;;;;;;23.40;56.80;;;;;;1516318;78;715;-60
2022/10/28 06:27:33;;;;;;;;;;;23.40;56.80;;;;;;1498391;78;1087;-61
2022/10/28 06:29:35;;;;;;;;;;;23.30;56.80;;;;;;1487332;78;788;-61
2022/10/28 06:31:40;;;;;;;;;;;23.30;56.90;;;;;;1487791;78;744;-60
2022/10/28 06:33:42;;;;;;;;;;;23.30;56.90;;;;;;1514677;78;1924;-60
2022/10/28 06:35:44;;;;;;;;;;;23.30;57.00;;;;;;1503542;78;1619;-60
2022/10/28 06:37:46;;;;;;;;;;;23.30;57.00;;;;;;1513590;77;711;-60
2022/10/28 06:39:51;;;;;;;;;;;23.30;57.00;;;;;;1508686;78;874;-60
2022/10/28 06:41:51;;;;;;;;;;;23.30;57.00;;;;;;1505095;78;1775;-60
2022/10/28 06:43:53;;;;;;;;;;;23.30;57.10;;;;;;1512115;77;734;-61
2022/10/28 06:45:56;;;;;;;;;;;23.30;57.10;;;;;;1512259;78;1177;-60
2022/10/28 06:47:58;;;;;;;;;;;23.20;57.00;;;;;;1506231;78;713;-60
2022/10/28 06:50:00;;;;;;;;;;;23.20;57.10;;;;;;1511833;78;1468;-60
2022/10/28 06:52:02;;;;;;;;;;;23.30;57.10;;;;;;1512596;77;721;-61
2022/10/28 06:54:04;;;;;;;;;;;23.30;57.10;;;;;;1513845;78;1946;-60
2022/10/28 06:56:06;;;;;;;;;;;23.30;57.10;;;;;;1510939;78;1080;-59
2022/10/28 06:58:09;;;;;;;;;;;23.30;57.10;;;;;;1511696;78;669;-61
2022/10/28 07:00:11;;;;;;;;;;;23.30;57.20;;;;;;1511691;77;701;-61
2022/10/28 07:02:14;;;;;;;;;;;23.30;57.20;;;;;;1514431;78;1187;-59
2022/10/28 07:04:16;;;;;;;;;;;23.20;57.20;;;;;;1506084;78;718;-59
2022/10/28 07:06:18;;;;;;;;;;;23.30;57.30;;;;;;1509992;78;1135;-61
2022/10/28 07:08:20;;;;;;;;;;;23.20;57.20;;;;;;1507655;77;770;-60
2022/10/28 07:10:21;;;;;;;;;;;23.20;57.20;;;;;;1507185;78;724;-61
2022/10/28 07:12:23;;;;;;;;;;;23.30;57.30;;;;;;1502406;77;765;-61
2022/10/28 07:14:26;;;;;;;;;;;23.30;57.40;;;;;;1511621;78;1952;-60
2022/10/28 07:16:28;;;;;;;;;;;23.30;57.10;;;;;;1510543;78;1577;-59
2022/10/28 07:18:30;;;;;;;;;;;23.30;57.00;;;;;;1512283;78;799;-60
2022/10/28 07:20:32;;;;;;;;;;;23.20;57.10;;;;;;1514250;77;731;-59
2022/10/28 07:22:34;;;;;;;;;;;23.30;57.20;;;;;;1509894;78;776;-59
2022/10/28 07:24:35;;;;;;;;;;;23.30;57.20;;;;;;1511022;78;740;-60
2022/10/28 07:26:37;;;;;;;;;;;23.30;57.20;;;;;;1509618;78;1135;-58
2022/10/28 07:28:41;;;;;;;;;;;23.30;57.40;;;;;;1511261;77;1112;-62
2022/10/28 07:30:43;;;;;;;;;;;23.30;57.80;;;;;;1518380;77;1912;-60
2022/10/28 07:32:45;;;;;;;;;;;23.20;57.60;;;;;;1516870;77;1941;-60
2022/10/28 07:34:46;;;;;;;;;;;23.30;57.80;;;;;;1501213;77;746;-60
2022/10/28 07:36:49;;;;;;;;;;;23.40;57.40;;;;;;1496251;77;1177;-60
2022/10/28 07:38:51;;;;;;;;;;;23.40;57.20;;;;;;1505208;77;769;-59
2022/10/28 07:40:53;;;;;;;;;;;23.40;57.20;;;;;;1501092;77;682;-59
2022/10/28 07:42:55;;;;;;;;;;;23.50;57.30;;;;;;1517451;77;849;-60
2022/10/28 07:44:57;;;;;;;;;;;23.50;57.30;;;;;;1521422;77;1555;-61
2022/10/28 07:46:59;;;;;;;;;;;23.50;57.20;;;;;;1519668;77;1111;-59
2022/10/28 07:49:01;;;;;;;;;;;23.50;57.20;;;;;;1519330;77;713;-59
2022/10/28 07:51:03;;;;;;;;;;;23.50;57.10;;;;;;1524959;77;794;-60
2022/10/28 07:53:05;;;;;;;;;;;23.50;57.00;;;;;;1513950;78;1914;-59
2022/10/28 07:55:07;;;;;;;;;;;23.50;57.00;;;;;;1501699;77;712;-60
2022/10/28 07:57:09;;;;;;;;;;;23.50;56.90;;;;;;1509484;77;1128;-59
2022/10/28 07:59:11;;;;;;;;;;;23.50;56.90;;;;;;1513426;77;1505;-60
2022/10/28 08:01:13;;;;;;;;;;;23.50;57.00;;;;;;1511702;78;663;-60
2022/10/28 08:03:15;;;;;;;;;;;23.40;57.00;;;;;;1519369;77;814;-59
2022/10/28 08:05:17;;;;;;;;;;;23.40;57.00;;;;;;1519296;77;762;-59
2022/10/28 08:07:19;;;;;;;;;;;23.50;57.20;;;;;;1520018;78;1085;-60
2022/10/28 08:09:21;;;;;;;;;;;23.40;57.10;;;;;;1517189;77;661;-59
2022/10/28 08:11:23;;;;;;;;;;;23.30;57.20;;;;;;1519998;77;747;-59
2022/10/28 08:13:25;;;;;;;;;;;23.30;57.20;;;;;;1519508;77;1944;-60
2022/10/28 08:15:28;;;;;;;;;;;23.30;57.20;;;;;;1520653;77;716;-61
2022/10/28 08:17:30;;;;;;;;;;;23.30;57.20;;;;;;1513528;77;1084;-60
2022/10/28 08:19:32;;;;;;;;;;;23.40;57.20;;;;;;1515267;77;779;-59
2022/10/28 08:21:34;;;;;;;;;;;23.40;57.30;;;;;;1522797;77;739;-60
2022/10/28 08:23:37;;;;;;;;;;;23.40;57.20;;;;;;1524985;77;725;-60
2022/10/28 08:25:40;;;;;;;;;;;23.40;57.30;;;;;;1527418;77;1131;-59
2022/10/28 08:27:42;;;;;;;;;;;23.30;57.30;;;;;;1507380;77;1635;-60
2022/10/28 08:29:44;;;;;;;;;;;23.40;57.30;;;;;;1494338;78;1120;-60
2022/10/28 08:31:46;;;;;;;;;;;23.40;57.30;;;;;;1496605;78;759;-59
2022/10/28 08:33:48;;;;;;;;;;;23.40;57.30;;;;;;1496103;78;1928;-60
2022/10/28 08:35:54;;;;;;;;;;;23.40;57.30;;;;;;1496219;79;1295;-59
2022/10/28 08:37:53;;;;;;;;;;;23.40;57.40;;;;;;1495245;78;1718;-59
2022/10/28 08:39:55;;;;;;;;;;;23.40;57.30;;;;;;1495733;78;792;-59
2022/10/28 08:42:02;;;;;;;;;;;23.40;57.30;;;;;;1489555;78;1569;-59
2022/10/28 08:44:22;;;;;;;;;;;23.40;57.40;;;;;;1487623;78;766;-61
2022/10/28 08:46:31;;;;;;;;;;;23.30;57.40;;;;;;1494010;78;1172;-59
2022/10/28 08:48:34;;;;;;;;;;;23.30;58.90;;;;;;1488964;78;725;-60
2022/10/28 08:50:50;;;;;;;;;;;23.20;59.80;;;;;;1493024;78;776;-60
2022/10/28 08:52:56;;;;;;;;;;;23.20;60.30;;;;;;1488030;78;1918;-59
2022/10/28 08:54:59;;;;;;;;;;;23.20;60.00;;;;;;1488397;78;1906;-59
2022/10/28 08:57:02;;;;;;;;;;;23.30;60.00;;;;;;1492580;78;1623;-60
2022/10/28 08:59:04;;;;;;;;;;;23.40;59.80;;;;;;1483256;78;721;-60
2022/10/28 09:01:06;;;;;;;;;;;23.50;60.40;;;;;;1487479;78;693;-60
2022/10/28 09:03:12;;;;;;;;;;;23.60;59.80;;;;;;1487140;78;727;-59
2022/10/28 09:05:16;;;;;;;;;;;23.60;59.50;;;;;;1489508;78;697;-59
2022/10/28 09:07:18;;;;;;;;;;;23.60;59.50;;;;;;1491716;78;1117;-56
2022/10/28 09:09:21;;;;;;;;;;;23.60;59.90;;;;;;1499297;78;1584;-59
2022/10/28 09:11:27;;;;;;;;;;;23.50;61.20;;;;;;1482210;78;757;-58
2022/10/28 09:13:30;;;;;;;;;;;23.40;61.90;;;;;;1491588;78;1990;-59
2022/10/28 09:15:43;;;;;;;;;;;23.30;61.60;;;;;;1492456;79;1879;-55
2022/10/28 09:17:50;;;;;;;;;;;23.30;61.70;;;;;;1488183;78;807;-58
2022/10/28 09:19:52;;;;;;;;;;;23.30;62.50;;;;;;1481670;78;2012;-55
2022/10/28 09:22:05;;;;;;;;;;;23.30;62.30;;;;;;1483309;78;730;-60
2022/10/28 09:24:08;;;;;;;;;;;23.30;62.40;;;;;;1490738;78;1551;-58
2022/10/28 09:26:19;;;;;;;;;;;23.20;62.40;;;;;;1485399;78;1971;-60
2022/10/28 09:28:25;;;;;;;;;;;23.20;62.40;;;;;;1484471;78;702;-60
2022/10/28 09:30:28;;;;;;;;;;;23.30;62.50;;;;;;1503704;77;1962;-57
2022/10/28 09:32:35;;;;;;;;;;;23.30;62.50;;;;;;1509128;77;923;-59
2022/10/28 09:34:41;;;;;;;;;;;23.30;62.70;;;;;;1493143;77;1958;-60
2022/10/28 09:36:45;;;;;;;;;;;23.40;62.40;;;;;;1505254;77;1455;-59
2022/10/28 09:38:47;;;;;;;;;;;23.40;62.20;;;;;;1512413;77;1551;-58
2022/10/28 09:40:50;;;;;;;;;;;23.50;62.00;;;;;;1511815;78;798;-59
2022/10/28 09:42:59;;;;;;;;;;;23.60;61.70;;;;;;1509674;77;777;-59
2022/10/28 09:45:03;;;;;;;;;;;23.60;61.50;;;;;;1507633;78;738;-59
2022/10/28 09:47:06;;;;;;;;;;;23.60;61.50;;;;;;1507839;78;1809;-58
2022/10/28 09:49:10;;;;;;;;;;;23.60;61.50;;;;;;1505939;77;1947;-60
2022/10/28 09:51:31;;;;;;;;;;;23.60;61.60;;;;;;1509627;78;2094;-59
2022/10/28 09:53:35;;;;;;;;;;;23.60;61.90;;;;;;1497125;78;1955;-60
2022/10/28 09:55:36;;;;;;;;;;;23.50;62.00;;;;;;1513501;78;1117;-59
2022/10/28 09:57:38;;;;;;;;;;;23.50;62.10;;;;;;1510121;77;777;-59
2022/10/28 09:59:40;;;;;;;;;;;23.60;62.20;;;;;;1511446;78;763;-59
2022/10/28 10:01:44;;;;;;;;;;;23.60;62.20;;;;;;1510434;78;777;-58
2022/10/28 10:03:49;;;;;;;;;;;23.60;62.20;;;;;;1513743;78;1799;-59
2022/10/28 10:05:51;;;;;;;;;;;23.60;62.00;;;;;;1514245;77;1579;-59
2022/10/28 10:07:55;;;;;;;;;;;23.70;61.80;;;;;;1513178;78;787;-59
2022/10/28 10:09:57;;;;;;;;;;;23.70;61.50;;;;;;1511334;78;968;-60
2022/10/28 10:12:00;;;;;;;;;;;23.90;61.30;;;;;;1502340;77;913;-57
2022/10/28 10:14:06;;;;;;;;;;;23.80;61.10;;;;;;1512021;77;1948;-60
2022/10/28 10:16:12;;;;;;;;;;;23.90;60.90;;;;;;1511151;78;1145;-57
2022/10/28 10:18:16;;;;;;;;;;;23.90;60.60;;;;;;1505217;78;1889;-61
2022/10/28 10:20:18;;;;;;;;;;;24.00;60.20;;;;;;1507668;77;1882;-59
2022/10/28 10:22:22;;;;;;;;;;;24.00;60.10;;;;;;1511299;78;752;-59
2022/10/28 10:24:31;;;;;;;;;;;24.00;60.10;;;;;;1504676;78;1748;-60
2022/10/28 10:26:32;;;;;;;;;;;24.10;60.10;;;;;;1499682;78;1081;-58
2022/10/28 10:28:38;;;;;;;;;;;24.10;60.10;;;;;;1511152;77;691;-59
2022/10/28 10:30:50;;;;;;;;;;;24.00;60.30;;;;;;1502657;77;1126;-58
2022/10/28 10:32:52;;;;;;;;;;;24.00;60.40;;;;;;1496685;78;754;-58
2022/10/28 10:35:14;;;;;;;;;;;23.90;60.40;;;;;;1492212;78;1950;-61
2022/10/28 10:37:17;;;;;;;;;;;23.90;60.30;;;;;;1490098;78;1185;-59
2022/10/28 10:39:29;;;;;;;;;;;24.00;60.10;;;;;;1495246;79;769;-57
2022/10/28 10:41:34;;;;;;;;;;;24.00;60.00;;;;;;1498585;78;2264;-60
2022/10/28 10:43:36;;;;;;;;;;;24.00;59.90;;;;;;1491877;79;797;-58
2022/10/28 10:45:38;;;;;;;;;;;24.10;59.80;;;;;;1498874;78;1183;-59
2022/10/28 10:47:40;;;;;;;;;;;24.10;59.70;;;;;;1496213;79;1525;-60
2022/10/28 10:49:42;;;;;;;;;;;24.10;59.70;;;;;;1497709;79;769;-59
2022/10/28 10:51:50;;;;;;;;;;;24.10;59.70;;;;;;1497093;79;690;-59
2022/10/28 10:53:54;;;;;;;;;;;24.10;59.70;;;;;;1492572;79;1926;-60
2022/10/28 10:56:03;;;;;;;;;;;24.10;59.50;;;;;;1496339;79;2061;-60
2022/10/28 10:58:05;;;;;;;;;;;24.20;59.40;;;;;;1498777;79;742;-59
2022/10/28 11:00:07;;;;;;;;;;;24.20;59.40;;;;;;1496979;78;727;-60
2022/10/28 11:02:29;;;;;;;;;;;24.20;59.30;;;;;;1469304;81;1590;-57
2022/10/28 11:04:35;;;;;;;;;;;24.20;59.20;;;;;;1492348;79;766;-59
2022/10/28 11:06:36;;;;;;;;;;;24.10;59.20;;;;;;1498144;79;1490;-57
2022/10/28 11:08:42;;;;;;;;;;;24.10;59.40;;;;;;1495525;79;1041;-59
2022/10/28 11:10:44;;;;;;;;;;;24.10;59.30;;;;;;1492114;79;816;-58
2022/10/28 11:12:52;;;;;;;;;;;24.10;59.30;;;;;;1497361;78;659;-58
2022/10/28 11:14:59;;;;;;;;;;;24.10;59.20;;;;;;1493938;79;1945;-59
2022/10/28 11:17:01;;;;;;;;;;;24.10;59.20;;;;;;1496864;79;1868;-59
2022/10/28 11:19:05;;;;;;;;;;;24.00;59.20;;;;;;1497707;79;793;-60
2022/10/28 11:21:08;;;;;;;;;;;24.00;59.20;;;;;;1493803;79;1603;-59
2022/10/28 11:23:11;;;;;;;;;;;24.00;59.20;;;;;;1498438;79;907;-59
2022/10/28 11:25:15;;;;;;;;;;;24.00;59.30;;;;;;1493799;79;812;-60
2022/10/28 11:27:18;;;;;;;;;;;23.90;59.30;;;;;;1490340;78;1908;-58
2022/10/28 11:29:20;;;;;;;;;;;24.00;59.20;;;;;;1494472;78;1886;-60
2022/10/28 11:31:36;;;;;;;;;;;24.00;59.20;;;;;;1489263;78;1745;-60
2022/10/28 11:33:39;;;;;;;;;;;24.00;59.20;;;;;;1489046;79;1938;-59
2022/10/28 11:35:59;;;;;;;;;;;24.00;59.20;;;;;;1488928;79;1966;-61
2022/10/28 11:38:03;;;;;;;;;;;23.90;59.20;;;;;;1495868;78;694;-60
2022/10/28 11:40:06;;;;;;;;;;;23.90;59.20;;;;;;1497653;79;2077;-61
2022/10/28 11:42:12;;;;;;;;;;;23.90;59.40;;;;;;1497343;78;732;-60
2022/10/28 11:44:22;;;;;;;;;;;24.00;59.30;;;;;;1502768;78;1902;-60
2022/10/28 11:46:28;;;;;;;;;;;23.90;59.20;;;;;;1500401;79;1175;-59
2022/10/28 11:48:41;;;;;;;;;;;23.90;59.30;;;;;;1501368;79;1860;-60
2022/10/28 11:50:45;;;;;;;;;;;23.90;59.10;;;;;;1495056;78;738;-60
2022/10/28 11:52:54;;;;;;;;;;;24.00;58.90;;;;;;1497623;79;745;-60
2022/10/28 11:55:10;;;;;;;;;;;24.00;58.90;;;;;;1499238;79;1950;-61
2022/10/28 11:57:13;;;;;;;;;;;24.00;58.90;;;;;;1494990;79;1119;-59
2022/10/28 11:59:22;;;;;;;;;;;23.90;58.90;;;;;;1499446;78;1556;-60
2022/10/28 12:01:29;;;;;;;;;;;24.00;58.90;;;;;;1492401;78;1838;-59
2022/10/28 12:03:44;;;;;;;;;;;24.00;58.80;;;;;;1498839;79;716;-60
2022/10/28 12:05:53;;;;;;;;;;;23.90;58.80;;;;;;1497541;79;1987;-60
2022/10/28 12:07:56;;;;;;;;;;;24.00;58.60;;;;;;1495395;79;688;-60
2022/10/28 12:10:00;;;;;;;;;;;24.00;58.60;;;;;;1492467;78;757;-60
2022/10/28 12:12:03;;;;;;;;;;;24.00;58.40;;;;;;1495646;78;2011;-59
2022/10/28 12:14:20;;;;;;;;;;;24.10;58.40;;;;;;1494369;79;1784;-61
2022/10/28 12:16:24;;;;;;;;;;;24.10;58.10;;;;;;1498558;79;1159;-60